Time;durP1;ratioP1;P1;durP2;ratioP2;P2;SDS_P1;SDS_P2;PMS_P1;PMS_P2;Temp;Humidity;BMP_temperature;BMP_pressure;BME280_temperature;BME280_humidity;BME280_pressure;Samples;Min_cycle;Max_cycle;Signal;HPM_P1;HPM_P2
2022/10/15 00:00:47;;;;;;;5.80;3.63;;;;;;;18.56;64.72;100654.06;5104189;28;20044;-78
2022/10/15 00:03:14;;;;;;;9.38;4.03;;;;;;;18.56;65.01;100649.22;5102970;28;20044;-79
2022/10/15 00:05:41;;;;;;;9.38;5.22;;;;;;;18.40;64.55;100616.97;5098013;28;20059;-78
2022/10/15 00:08:09;;;;;;;6.75;4.15;;;;;;;18.47;64.82;100628.63;5103446;28;20056;-78
2022/10/15 00:10:37;;;;;;;12.27;4.57;;;;;;;18.55;64.72;100635.44;5100544;28;20532;-75
2022/10/15 00:13:04;;;;;;;9.35;4.45;;;;;;;18.43;64.56;100627.63;5113337;28;20058;-76
2022/10/15 00:15:31;;;;;;;8.63;5.13;;;;;;;18.27;64.80;100598.16;5127356;28;20107;-75
2022/10/15 00:17:58;;;;;;;8.40;4.15;;;;;;;18.42;64.49;100618.28;5128160;28;20055;-76
2022/10/15 00:20:24;;;;;;;9.07;4.40;;;;;;;18.33;64.59;100606.16;5119524;28;20057;-76
2022/10/15 00:22:51;;;;;;;10.20;4.40;;;;;;;18.36;64.95;100608.31;5114122;28;20432;-76
2022/10/15 00:25:18;;;;;;;6.50;3.85;;;;;;;18.43;64.93;100619.97;5109727;28;20047;-76
2022/10/15 00:27:45;;;;;;;6.88;4.28;;;;;;;18.38;64.67;100613.63;5117267;28;20058;-75
2022/10/15 00:30:12;;;;;;;8.05;4.25;;;;;;;18.36;64.77;100602.66;5112784;28;20074;-76
2022/10/15 00:32:39;;;;;;;10.73;4.60;;;;;;;18.33;64.90;100599.69;5107210;27;20131;-76
2022/10/15 00:35:06;;;;;;;11.52;4.70;;;;;;;18.45;64.79;100608.31;5105597;28;20517;-76
2022/10/15 00:37:33;;;;;;;7.20;3.95;;;;;;;18.46;64.90;100612.78;5107443;28;20047;-77
2022/10/15 00:40:00;;;;;;;9.05;3.70;;;;;;;18.41;64.89;100601.66;5110304;28;20051;-75
2022/10/15 00:42:28;;;;;;;11.75;4.13;;;;;;;18.24;64.86;100586.34;5103837;28;20059;-75
2022/10/15 00:44:57;;;;;;;7.35;3.75;;;;;;;18.39;65.01;100598.31;5108786;28;20051;-75
2022/10/15 00:47:29;;;;;;;8.88;4.75;;;;;;;18.41;64.63;100605.31;5108496;28;20051;-75
2022/10/15 00:50:23;;;;;;;8.52;4.20;;;;;;;18.21;64.72;100583.34;5103388;28;20052;-75
2022/10/15 00:52:56;;;;;;;11.60;5.25;;;;;;;18.38;64.65;100602.31;5109047;28;20358;-75
2022/10/15 00:55:26;;;;;;;10.80;4.15;;;;;;;18.37;64.96;100595.84;5101019;28;20051;-75
2022/10/15 00:57:54;;;;;;;7.70;4.28;;;;;;;18.35;64.84;100602.97;5108584;28;20394;-75
2022/10/15 01:00:21;;;;;;;7.32;4.20;;;;;;;18.34;64.88;100601.31;5105524;28;20052;-75
2022/10/15 01:02:48;;;;;;;9.55;4.45;;;;;;;18.17;64.88;100573.88;5110011;28;20519;-75
2022/10/15 01:05:17;;;;;;;10.23;4.60;;;;;;;18.33;64.87;100596.84;5103046;28;20044;-75
2022/10/15 01:07:44;;;;;;;6.47;3.75;;;;;;;18.28;64.78;100602.66;5110524;28;20039;-75
2022/10/15 01:10:11;;;;;;;8.48;3.95;;;;;;;18.21;64.96;100580.53;5112997;28;20070;-75
2022/10/15 01:12:47;;;;;;;8.43;4.72;;;;;;;18.28;64.74;100592.16;5109519;28;20062;-74
2022/10/15 01:15:41;;;;;;;9.10;4.57;;;;;;;18.23;64.75;100583.88;5103068;28;20445;-75
2022/10/15 01:18:14;;;;;;;7.30;4.07;;;;;;;18.20;64.85;100576.03;5107070;28;20063;-76
2022/10/15 01:20:41;;;;;;;7.10;4.00;;;;;;;18.19;65.23;100588.53;5105337;28;20135;-76
2022/10/15 01:23:29;;;;;;;7.85;3.88;;;;;;;18.16;65.40;100578.72;5097747;28;20423;-77
2022/10/15 01:26:24;;;;;;;7.65;3.90;;;;;;;18.07;65.40;100572.19;5109418;28;20052;-77
2022/10/15 01:29:26;;;;;;;11.70;5.25;;;;;;;18.00;65.44;100552.91;5111299;28;20097;-75
2022/10/15 01:32:02;;;;;;;17.15;6.20;;;;;;;18.08;66.01;100559.72;5107727;28;20048;-78
2022/10/15 01:34:32;;;;;;;10.88;4.97;;;;;;;18.07;66.08;100566.56;5107940;28;20044;-78
2022/10/15 01:37:06;;;;;;;8.32;5.82;;;;;;;18.00;66.24;100566.22;5107387;28;20441;-79
2022/10/15 01:39:40;;;;;;;13.20;5.97;;;;;;;18.05;65.86;100563.25;5096868;28;20506;-79
2022/10/15 01:42:22;;;;;;;10.20;5.88;;;;;;;18.00;65.83;100547.25;5111124;28;20044;-80
2022/10/15 01:45:02;;;;;;;12.05;6.60;;;;;;;17.80;65.83;100501.88;5105770;28;20406;-79
2022/10/15 01:47:43;;;;;;;9.65;6.10;;;;;;;18.18;65.81;100559.41;5104284;28;20048;-79
2022/10/15 01:50:13;;;;;;;11.55;6.35;;;;;;;18.12;65.52;100546.63;5106703;28;20090;-76
2022/10/15 01:52:42;;;;;;;12.07;6.70;;;;;;;18.18;65.62;100556.56;5105846;28;20048;-76
2022/10/15 01:55:12;;;;;;;11.10;6.05;;;;;;;18.16;65.38;100549.63;5109662;28;20052;-77
2022/10/15 01:57:42;;;;;;;12.73;5.90;;;;;;;18.09;65.75;100546.47;5108656;28;20070;-76
2022/10/15 02:00:10;;;;;;;12.30;6.85;;;;;;;17.87;66.31;100547.41;5108672;28;20047;-77
2022/10/15 02:02:37;;;;;;;11.25;4.95;;;;;;;17.58;66.56;100519.75;5105073;28;20047;-82
2022/10/15 02:05:09;;;;;;;7.53;4.28;;;;;;;17.63;66.40;100526.06;5106668;28;20054;-79
2022/10/15 02:08:00;;;;;;;6.40;4.18;;;;;;;17.58;66.80;100531.88;5107753;28;20048;-79
2022/10/15 02:10:38;;;;;;;6.95;3.92;;;;;;;17.49;66.90;100531.00;5102351;28;20047;-80
2022/10/15 02:13:35;;;;;;;9.38;4.55;;;;;;;17.41;67.60;100524.19;5111008;28;20051;-75
2022/10/15 02:16:12;;;;;;;10.65;5.05;;;;;;;17.48;66.83;100503.94;5109989;28;20516;-77
2022/10/15 02:18:54;;;;;;;7.18;4.80;;;;;;;17.67;66.20;100507.28;5109295;28;20071;-76
2022/10/15 02:21:34;;;;;;;10.75;4.60;;;;;;;17.51;66.50;100490.00;5104707;28;20043;-74
2022/10/15 02:24:21;;;;;;;9.07;4.45;;;;;;;17.64;66.44;100516.44;5110061;28;20063;-76
2022/10/15 02:26:52;;;;;;;10.65;4.63;;;;;;;17.54;66.62;100494.16;5108215;28;20051;-74
2022/10/15 02:29:22;;;;;;;10.20;4.85;;;;;;;17.71;66.62;100510.31;5104433;28;20052;-74
2022/10/15 02:31:51;;;;;;;11.82;4.72;;;;;;;17.70;65.93;100489.69;5105067;28;20074;-73
2022/10/15 02:34:21;;;;;;;9.82;5.40;;;;;;;17.84;65.94;100508.53;5102686;28;20405;-73
2022/10/15 02:36:48;;;;;;;;;;;;;;;17.76;66.23;100504.53;5111122;28;20039;-74
2022/10/15 02:39:20;;;;;;;10.68;3.92;;;;;;;17.80;65.71;100496.22;5105295;28;19938;-74
2022/10/15 02:41:47;;;;;;;9.85;4.78;;;;;;;17.74;66.01;100493.53;5094561;28;20887;-74
2022/10/15 02:44:14;;;;;;;7.38;4.75;;;;;;;17.64;66.11;100476.91;5102011;28;20047;-74
2022/10/15 02:46:41;;;;;;;9.68;5.80;;;;;;;17.86;66.04;100503.38;5106407;28;20051;-77
2022/10/15 02:49:08;;;;;;;11.88;4.63;;;;;;;17.82;65.93;100494.75;5107912;28;20493;-76
2022/10/15 02:51:36;;;;;;;8.85;4.15;;;;;;;17.72;66.00;100484.56;5108444;27;20055;-75
2022/10/15 02:54:04;;;;;;;8.15;4.53;;;;;;;17.67;65.79;100484.69;5107106;28;20052;-76
2022/10/15 02:56:31;;;;;;;7.70;4.68;;;;;;;17.65;65.68;100486.22;5108069;28;20489;-76
2022/10/15 02:58:57;;;;;;;12.63;5.22;;;;;;;17.59;65.46;100477.06;5106262;28;20062;-77
2022/10/15 03:01:24;;;;;;;8.88;5.03;;;;;;;17.54;65.55;100480.06;5103552;28;20039;-77
2022/10/15 03:03:51;;;;;;;9.70;5.55;;;;;;;17.51;65.54;100483.53;5099624;28;20052;-77
2022/10/15 03:06:18;;;;;;;6.97;4.50;;;;;;;17.42;65.74;100465.72;5105883;28;20059;-78
2022/10/15 03:08:45;;;;;;;9.13;5.10;;;;;;;17.45;65.52;100453.78;5109616;28;20055;-77
2022/10/15 03:11:12;;;;;;;11.20;5.57;;;;;;;17.39;65.30;100438.16;5105279;28;20040;-76
2022/10/15 03:13:39;;;;;;;14.15;5.35;;;;;;;17.58;65.68;100466.94;5102733;28;20118;-77
2022/10/15 03:16:08;;;;;;;10.50;4.63;;;;;;;17.47;65.78;100438.19;5108239;28;20048;-77
2022/10/15 03:18:35;;;;;;;9.27;4.45;;;;;;;17.48;65.76;100439.84;5098888;28;20059;-78
2022/10/15 03:21:06;;;;;;;7.28;4.68;;;;;;;17.57;66.05;100453.97;5098444;28;20039;-77
2022/10/15 03:23:33;;;;;;;10.35;5.60;;;;;;;17.44;65.67;100415.44;5107337;28;20039;-77
2022/10/15 03:26:00;;;;;;;11.13;5.65;;;;;;;17.51;66.14;100438.38;5103461;28;20071;-76
2022/10/15 03:28:27;;;;;;;11.07;5.85;;;;;;;17.50;66.19;100436.69;5109183;28;20070;-77
2022/10/15 03:30:54;;;;;;;6.82;3.85;;;;;;;17.41;67.10;100449.97;5101736;28;20048;-76
2022/10/15 03:33:20;;;;;;;8.02;4.88;;;;;;;17.24;67.32;100448.75;5107548;28;20060;-76
2022/10/15 03:35:51;;;;;;;9.25;5.53;;;;;;;16.96;67.58;100413.50;5108795;28;20040;-76
2022/10/15 03:38:18;;;;;;;8.68;4.22;;;;;;;16.99;67.90;100426.94;5108631;28;20059;-77
2022/10/15 03:40:45;;;;;;;7.47;4.47;;;;;;;16.96;68.32;100441.72;5103679;28;20493;-76
2022/10/15 03:43:12;;;;;;;7.47;3.50;;;;;;;16.90;67.93;100440.19;5104298;28;20059;-77
2022/10/15 03:45:39;;;;;;;6.72;4.22;;;;;;;16.81;67.78;100423.22;5103187;28;20055;-77
2022/10/15 03:48:06;;;;;;;10.52;3.92;;;;;;;17.03;67.65;100439.25;5109596;28;20044;-77
2022/10/15 03:50:33;;;;;;;9.07;4.38;;;;;;;17.16;67.33;100443.94;5111759;28;20059;-78
2022/10/15 03:53:04;;;;;;;8.05;4.07;;;;;;;17.22;66.88;100436.97;5109577;28;20040;-76
2022/10/15 03:55:32;;;;;;;11.63;4.07;;;;;;;17.29;66.92;100430.84;5104592;28;20051;-77
2022/10/15 03:57:58;;;;;;;9.65;4.63;;;;;;;17.24;66.87;100428.19;5103749;28;20055;-77
2022/10/15 04:00:26;;;;;;;9.50;3.75;;;;;;;17.27;66.53;100425.53;5095010;28;20052;-77
2022/10/15 04:02:52;;;;;;;7.38;4.20;;;;;;;17.18;66.89;100427.50;5109821;28;20047;-77
2022/10/15 04:05:19;;;;;;;8.68;4.32;;;;;;;17.03;66.90;100416.69;5106970;28;20047;-76
2022/10/15 04:07:46;;;;;;;7.95;4.57;;;;;;;17.00;67.54;100434.25;5097363;28;20054;-77
2022/10/15 04:10:13;;;;;;;7.43;4.30;;;;;;;16.78;67.45;100399.31;5096602;28;20051;-76
2022/10/15 04:12:40;;;;;;;6.03;3.20;;;;;;;16.69;68.26;100412.53;5102148;28;20040;-74
2022/10/15 04:15:07;;;;;;;8.13;4.10;;;;;;;16.49;68.68;100382.91;5090238;28;20055;-75
2022/10/15 04:17:34;;;;;;;11.35;3.80;;;;;;;16.64;68.45;100414.66;5102533;28;20065;-75
2022/10/15 04:20:01;;;;;;;6.55;3.75;;;;;;;16.46;68.61;100402.47;5097090;28;20059;-76
2022/10/15 04:22:28;;;;;;;9.30;3.80;;;;;;;16.56;68.59;100421.91;5104651;28;20382;-76
2022/10/15 04:24:55;;;;;;;6.65;3.03;;;;;;;16.40;68.56;100400.94;5102667;27;20426;-76
2022/10/15 04:27:21;;;;;;;7.28;3.95;;;;;;;16.60;68.43;100428.56;5104447;28;20056;-76
2022/10/15 04:29:48;;;;;;;6.00;3.67;;;;;;;16.49;68.67;100407.47;5108443;28;20055;-76
2022/10/15 04:32:15;;;;;;;5.55;3.92;;;;;;;16.48;68.31;100401.00;5110363;28;20094;-76
2022/10/15 04:34:44;;;;;;;8.30;3.60;;;;;;;16.49;68.44;100413.09;5101914;28;20043;-75
2022/10/15 04:37:11;;;;;;;6.40;4.30;;;;;;;16.45;68.38;100406.47;5109515;28;20055;-75
2022/10/15 04:39:38;;;;;;;4.68;4.03;;;;;;;16.45;68.91;100427.00;5102617;28;20062;-78
2022/10/15 04:42:04;;;;;;;6.38;3.85;;;;;;;16.33;69.19;100412.66;5104143;28;20046;-77
2022/10/15 04:44:31;;;;;;;8.93;3.40;;;;;;;16.26;69.39;100415.13;5105888;28;20067;-77
2022/10/15 04:46:59;;;;;;;6.82;3.83;;;;;;;16.14;69.28;100410.09;5102528;28;20130;-76
2022/10/15 04:49:26;;;;;;;8.38;3.75;;;;;;;16.02;69.56;100399.38;5110121;28;20052;-75
2022/10/15 04:51:53;;;;;;;7.95;3.20;;;;;;;16.05;69.91;100409.19;5107259;28;20048;-76
2022/10/15 04:54:20;;;;;;;7.15;3.67;;;;;;;15.10;69.66;100286.22;5112716;28;20055;-76
2022/10/15 04:56:47;;;;;;;10.30;5.28;;;;;;;15.89;69.99;100400.28;5114557;28;20055;-76
2022/10/15 04:59:13;;;;;;;11.68;4.50;;;;;;;15.74;70.38;100390.25;5099501;28;20502;-77
2022/10/15 05:01:40;;;;;;;8.35;3.58;;;;;;;15.71;70.69;100396.50;5110701;28;20051;-78
2022/10/15 05:04:10;;;;;;;6.97;4.18;;;;;;;15.71;70.54;100399.31;5108456;28;20040;-78
2022/10/15 05:06:37;;;;;;;6.85;3.97;;;;;;;15.57;70.83;100393.72;5114193;28;20076;-78
2022/10/15 05:09:04;;;;;;;10.75;4.72;;;;;;;15.46;71.08;100377.41;5105429;28;20418;-77
2022/10/15 05:11:35;;;;;;;7.82;4.68;;;;;;;15.47;70.94;100379.88;5106918;28;20050;-79
2022/10/15 05:14:02;;;;;;;9.50;4.60;;;;;;;15.57;70.99;100390.06;5106183;28;20052;-77
2022/10/15 05:16:30;;;;;;;8.45;5.47;;;;;;;15.58;71.24;100388.91;5106081;28;20096;-77
2022/10/15 05:19:02;;;;;;;7.20;4.72;;;;;;;15.65;71.36;100395.75;5106755;28;20065;-76
2022/10/15 05:21:30;;;;;;;13.63;6.18;;;;;;;15.70;71.55;100397.66;5107556;28;20051;-75
2022/10/15 05:23:58;;;;;;;10.27;5.40;;;;;;;15.70;71.14;100392.03;5106182;28;20078;-74
2022/10/15 05:26:26;;;;;;;10.40;5.63;;;;;;;15.65;71.17;100376.06;5102596;28;20050;-75
2022/10/15 05:28:56;;;;;;;9.30;5.13;;;;;;;15.75;71.12;100397.53;5110056;28;20051;-77
2022/10/15 05:31:27;;;;;;;7.97;4.88;;;;;;;15.74;71.34;100390.25;5107175;28;20050;-76
2022/10/15 05:33:54;;;;;;;8.10;4.70;;;;;;;15.64;71.38;100382.00;5106803;28;20056;-76
2022/10/15 05:36:22;;;;;;;9.13;4.85;;;;;;;15.71;71.55;100404.94;5099114;28;20540;-77
2022/10/15 05:38:52;;;;;;;9.77;5.10;;;;;;;15.67;72.11;100398.31;5103087;27;20096;-77
2022/10/15 05:41:20;;;;;;;8.63;4.25;;;;;;;15.61;72.10;100389.09;5105076;28;20398;-77
2022/10/15 05:43:49;;;;;;;7.07;4.40;;;;;;;15.56;72.07;100377.16;5106131;28;20058;-76
2022/10/15 05:46:17;;;;;;;7.63;4.23;;;;;;;15.74;71.74;100393.06;5101822;28;20055;-76
2022/10/15 05:48:49;;;;;;;7.88;3.83;;;;;;;15.67;71.74;100374.94;5104745;28;20043;-77
2022/10/15 05:51:16;;;;;;;5.65;3.42;;;;;;;15.80;71.54;100397.41;5111998;28;20055;-76
2022/10/15 05:53:45;;;;;;;5.40;4.10;;;;;;;15.74;71.75;100380.97;5100696;28;20055;-77
2022/10/15 05:56:15;;;;;;;6.40;3.90;;;;;;;15.55;72.29;100373.47;5108181;28;20101;-76
2022/10/15 05:58:42;;;;;;;4.93;2.90;;;;;;;15.67;72.26;100392.66;5101151;28;20048;-79
2022/10/15 06:01:11;;;;;;;6.05;3.67;;;;;;;15.59;72.69;100384.97;5099951;28;20048;-78
2022/10/15 06:03:40;;;;;;;4.88;2.78;;;;;;;15.24;73.06;100347.22;5097726;27;20438;-78
2022/10/15 06:06:25;;;;;;;5.60;2.90;;;;;;;15.30;73.29;100369.31;5105496;28;20074;-78
2022/10/15 06:08:53;;;;;;;7.38;4.50;;;;;;;15.34;73.48;100387.22;5103978;28;20064;-78
2022/10/15 06:11:20;;;;;;;8.75;3.83;;;;;;;15.25;73.35;100368.59;5107209;28;20058;-78
2022/10/15 06:13:47;;;;;;;4.00;2.70;;;;;;;15.21;73.78;100385.25;5106376;28;20048;-77
2022/10/15 06:16:16;;;;;;;10.88;3.72;;;;;;;15.07;74.75;100376.84;5111382;28;20395;-78
2022/10/15 06:18:51;;;;;;;9.52;4.72;;;;;;;14.86;74.90;100362.41;5110015;27;20060;-79
2022/10/15 06:21:18;;;;;;;3.75;2.40;;;;;;;14.95;75.10;100384.19;5109048;28;20044;-78
2022/10/15 06:23:44;;;;;;;10.52;4.50;;;;;;;14.68;75.51;100344.50;5112159;28;20055;-77
2022/10/15 06:26:11;;;;;;;8.23;4.50;;;;;;;14.89;75.50;100366.56;5108331;28;20058;-77
2022/10/15 06:28:38;;;;;;;9.27;4.15;;;;;;;14.97;75.35;100368.63;5104836;28;20043;-77
2022/10/15 06:31:06;;;;;;;7.65;4.00;;;;;;;14.95;75.37;100359.69;5105754;28;20055;-79
2022/10/15 06:33:34;;;;;;;7.85;4.82;;;;;;;14.97;75.59;100360.19;5110666;28;20490;-78
2022/10/15 06:36:07;;;;;;;6.30;3.25;;;;;;;14.91;75.72;100351.06;5109502;28;20052;-78
2022/10/15 06:38:33;;;;;;;4.30;2.92;;;;;;;14.77;75.98;100339.00;5096985;28;20055;-77
2022/10/15 06:41:04;;;;;;;8.60;4.78;;;;;;;14.85;76.58;100359.91;5099192;28;20047;-78
2022/10/15 06:43:31;;;;;;;5.10;3.45;;;;;;;14.94;76.20;100352.41;5104760;28;20051;-78
2022/10/15 06:46:02;;;;;;;6.35;3.65;;;;;;;14.95;76.20;100350.44;5101724;28;20055;-77
2022/10/15 06:48:29;;;;;;;7.63;4.53;;;;;;;14.67;76.59;100297.06;5099004;28;20074;-76
2022/10/15 06:50:58;;;;;;;9.50;6.20;;;;;;;14.83;76.03;100304.00;5104377;28;20047;-77
2022/10/15 06:53:24;;;;;;;9.43;4.68;;;;;;;14.84;76.25;100314.09;5101966;28;20044;-79
2022/10/15 06:55:55;;;;;;;3.92;2.65;;;;;;;15.06;76.00;100332.19;5105020;28;20048;-78
2022/10/15 06:58:22;;;;;;;9.77;6.25;;;;;;;15.06;76.40;100324.56;5102158;28;20055;-78
2022/10/15 07:00:49;;;;;;;5.45;4.00;;;;;;;14.97;76.31;100305.94;5098190;28;20448;-78
2022/10/15 07:03:16;;;;;;;8.32;4.75;;;;;;;15.05;76.14;100308.84;5103091;28;20039;-78
2022/10/15 07:05:43;;;;;;;7.72;4.30;;;;;;;15.20;76.00;100338.59;5097878;28;20048;-79
2022/10/15 07:08:10;;;;;;;9.05;5.10;;;;;;;15.25;76.05;100340.47;5102413;28;20051;-77
2022/10/15 07:10:44;;;;;;;4.50;2.80;;;;;;;15.40;75.68;100348.53;5104157;28;20093;-77
2022/10/15 07:13:11;;;;;;;7.88;5.30;;;;;;;15.41;75.20;100341.75;5102375;28;20150;-77
2022/10/15 07:15:38;;;;;;;6.68;3.95;;;;;;;15.54;75.27;100354.13;5102474;28;20055;-77
2022/10/15 07:18:04;;;;;;;13.00;8.05;;;;;;;15.51;75.65;100349.94;5099286;28;20055;-77
2022/10/15 07:20:32;;;;;;;11.82;5.82;;;;;;;15.63;75.36;100352.22;5087993;28;20498;-78
2022/10/15 07:23:01;;;;;;;9.48;5.93;;;;;;;15.75;74.96;100335.59;5104305;28;20136;-78
2022/10/15 07:25:28;;;;;;;7.10;4.60;;;;;;;15.82;74.89;100337.94;5107387;27;20055;-78
2022/10/15 07:27:56;;;;;;;6.55;4.65;;;;;;;15.82;74.89;100338.78;5113002;28;20051;-78
2022/10/15 07:30:26;;;;;;;13.02;6.07;;;;;;;15.92;74.83;100343.31;5114544;28;21110;-74
2022/10/15 07:32:57;;;;;;;8.88;4.80;;;;;;;15.82;75.06;100324.69;5106024;28;20129;-72
2022/10/15 07:35:25;;;;;;;6.28;4.45;;;;;;;15.94;74.70;100345.84;5106362;28;20058;-77
2022/10/15 07:37:52;;;;;;;8.93;6.03;;;;;;;15.86;74.75;100333.34;5100337;28;20066;-74
2022/10/15 07:40:19;;;;;;;6.45;4.80;;;;;;;15.85;75.16;100342.94;5101913;28;20130;-76
2022/10/15 07:42:56;;;;;;;7.95;5.03;;;;;;;15.79;75.04;100341.41;5102831;28;20040;-76
2022/10/15 07:45:24;;;;;;;7.95;4.40;;;;;;;15.85;74.99;100343.78;5099166;28;20417;-79
2022/10/15 07:47:51;;;;;;;6.55;5.03;;;;;;;15.90;75.21;100368.19;5099711;28;20055;-77
2022/10/15 07:50:19;;;;;;;11.15;6.57;;;;;;;15.84;74.59;100342.13;5093605;28;20056;-80
2022/10/15 07:52:46;;;;;;;9.32;5.95;;;;;;;16.03;74.43;100360.78;5105310;28;20052;-80
2022/10/15 07:55:13;;;;;;;10.73;6.38;;;;;;;16.09;74.23;100351.03;5101316;28;20067;-81
2022/10/15 07:57:40;;;;;;;10.82;6.15;;;;;;;16.16;73.74;100325.22;5108075;28;20051;-80
2022/10/15 08:00:07;;;;;;;10.20;6.28;;;;;;;16.31;73.22;100322.84;5101888;28;20040;-80
2022/10/15 08:02:34;;;;;;;12.10;6.47;;;;;;;16.36;73.21;100338.75;5097978;28;20036;-80
2022/10/15 08:05:01;;;;;;;9.50;4.97;;;;;;;16.45;73.56;100356.53;5103925;28;20055;-80
2022/10/15 08:07:28;;;;;;;10.88;7.00;;;;;;;16.47;73.35;100359.03;5104384;28;20056;-80
2022/10/15 08:09:55;;;;;;;11.40;5.97;;;;;;;16.32;73.42;100334.94;5098945;28;20086;-79
2022/10/15 08:12:21;;;;;;;11.95;6.13;;;;;;;16.35;73.65;100352.03;5094903;28;20056;-79
2022/10/15 08:14:49;;;;;;;14.93;8.60;;;;;;;16.09;73.54;100297.53;5102518;28;20312;-78
2022/10/15 08:17:15;;;;;;;13.27;7.40;;;;;;;16.54;73.41;100370.66;5095458;28;20062;-78
2022/10/15 08:19:42;;;;;;;12.45;6.72;;;;;;;16.60;73.55;100349.63;5096434;28;20071;-79
2022/10/15 08:22:11;;;;;;;9.05;5.68;;;;;;;16.49;73.59;100334.19;5099368;28;20055;-77
2022/10/15 08:24:38;;;;;;;9.68;6.03;;;;;;;16.61;73.53;100351.28;5100666;28;20056;-78
2022/10/15 08:27:04;;;;;;;8.10;5.20;;;;;;;16.62;73.87;100338.03;5097257;28;20130;-76
2022/10/15 08:29:31;;;;;;;7.47;5.25;;;;;;;16.64;73.82;100356.28;5096008;28;20043;-75
2022/10/15 08:31:58;;;;;;;13.43;7.38;;;;;;;16.50;73.93;100347.94;5102662;28;20436;-76
2022/10/15 08:34:25;;;;;;;10.55;5.10;;;;;;;16.75;73.66;100365.28;5105157;28;20438;-78
2022/10/15 08:36:52;;;;;;;8.70;4.07;;;;;;;16.66;74.10;100368.06;5101569;28;20048;-79
2022/10/15 08:39:19;;;;;;;9.70;5.60;;;;;;;16.60;73.88;100363.72;5102215;28;20043;-73
2022/10/15 08:41:56;;;;;;;5.95;3.83;;;;;;;16.47;74.22;100339.28;5102191;28;20077;-78
2022/10/15 08:44:28;;;;;;;8.73;5.97;;;;;;;16.64;74.45;100369.53;5107337;28;20043;-77
2022/10/15 08:47:07;;;;;;;10.38;5.50;;;;;;;16.73;73.92;100374.06;5095463;28;20048;-76
2022/10/15 08:49:47;;;;;;;12.20;6.47;;;;;;;16.86;73.55;100365.84;5103482;27;20070;-72
2022/10/15 08:52:25;;;;;;;10.93;6.28;;;;;;;16.91;73.90;100366.50;5102037;28;20048;-69
2022/10/15 08:54:55;;;;;;;15.73;7.47;;;;;;;16.98;73.57;100346.28;5105266;28;20048;-72
2022/10/15 08:57:44;;;;;;;12.95;7.00;;;;;;;17.01;73.61;100346.47;5103130;28;20052;-73
2022/10/15 09:00:20;;;;;;;21.92;8.45;;;;;;;17.26;73.26;100356.16;5098439;28;20051;-73
2022/10/15 09:02:57;;;;;;;13.20;7.55;;;;;;;17.66;72.73;100384.22;5095347;28;20056;-73
2022/10/15 09:05:28;;;;;;;14.30;8.23;;;;;;;18.29;72.48;100384.66;5102000;28;20067;-72
2022/10/15 09:08:29;;;;;;;14.65;9.63;;;;;;;18.72;71.82;100388.53;5113374;28;20051;-72
2022/10/15 09:11:02;;;;;;;13.30;8.25;;;;;;;19.04;71.05;100390.72;5052796;28;20501;-72
2022/10/15 09:13:41;;;;;;;12.07;7.32;;;;;;;19.03;70.57;100383.38;5100431;28;20040;-75
2022/10/15 09:16:28;;;;;;;13.63;7.15;;;;;;;18.97;70.47;100359.25;5097257;28;20054;-75
2022/10/15 09:18:57;;;;;;;14.20;8.20;;;;;;;19.07;69.82;100370.19;5093510;28;20275;-74
2022/10/15 09:21:25;;;;;;;18.65;9.20;;;;;;;19.06;69.59;100379.84;5101558;28;20054;-73
2022/10/15 09:24:00;;;;;;;13.70;7.75;;;;;;;19.11;69.28;100391.00;5111183;28;20051;-73
2022/10/15 09:26:31;;;;;;;14.35;8.05;;;;;;;19.14;68.84;100390.31;5103283;28;20055;-74
2022/10/15 09:29:15;;;;;;;16.98;8.95;;;;;;;19.18;68.80;100379.97;5101597;28;20062;-75
2022/10/15 09:32:05;;;;;;;15.02;9.20;;;;;;;18.82;68.88;100323.91;5114614;28;20070;-75
2022/10/15 09:34:49;;;;;;;16.90;9.40;;;;;;;18.96;68.61;100346.28;5111189;28;20054;-75
2022/10/15 09:37:35;;;;;;;20.90;10.32;;;;;;;19.06;68.60;100368.53;5093863;28;20052;-74
2022/10/15 09:40:14;;;;;;;20.77;11.52;;;;;;;19.09;68.54;100367.84;5093987;28;20048;-74
2022/10/15 09:42:43;;;;;;;21.70;10.38;;;;;;;19.20;68.50;100367.47;5106577;28;20060;-75
2022/10/15 09:45:13;;;;;;;25.23;12.63;;;;;;;19.25;68.16;100372.91;5112780;28;20055;-74
2022/10/15 09:47:40;;;;;;;;;;;;;;;19.16;68.35;100372.97;5114660;28;20059;-74
2022/10/15 09:50:11;;;;;;;16.58;10.00;;;;;;;19.20;67.90;100361.78;5097194;28;19931;-74
2022/10/15 09:52:54;;;;;;;17.58;11.00;;;;;;;19.29;68.02;100373.91;5104373;28;20506;-74
2022/10/15 09:55:36;;;;;;;17.38;10.00;;;;;;;19.37;68.06;100373.81;5114152;28;20058;-74
2022/10/15 09:58:26;;;;;;;15.88;9.80;;;;;;;19.41;68.02;100385.28;5098837;28;20048;-74
2022/10/15 10:01:01;;;;;;;;;;;;;;;19.42;68.27;100386.97;5114476;28;20056;-74
2022/10/15 10:03:31;;;;;;;17.15;9.48;;;;;;;19.48;67.61;100385.56;5113585;27;20291;-74
2022/10/15 10:06:01;;;;;;;18.50;10.02;;;;;;;19.30;68.02;100372.72;5114725;28;20140;-73
2022/10/15 10:08:33;;;;;;;21.15;10.13;;;;;;;19.18;67.77;100360.16;5114369;28;20047;-75
2022/10/15 10:11:02;;;;;;;20.13;11.13;;;;;;;19.29;68.04;100390.88;5094268;28;20056;-74
2022/10/15 10:13:38;;;;;;;19.40;10.18;;;;;;;19.20;68.04;100370.28;5094695;28;20560;-75
2022/10/15 10:16:10;;;;;;;23.70;12.35;;;;;;;19.12;67.93;100369.19;5094406;28;20048;-74
2022/10/15 10:18:38;;;;;;;19.42;11.52;;;;;;;19.28;67.87;100386.38;5106339;28;20078;-74
2022/10/15 10:21:20;;;;;;;24.85;12.75;;;;;;;19.45;67.63;100379.75;5102211;28;20048;-74
2022/10/15 10:23:47;;;;;;;19.38;11.35;;;;;;;19.45;67.70;100369.25;5114739;28;20505;-75
2022/10/15 10:26:14;;;;;;;19.05;11.05;;;;;;;19.69;67.58;100379.09;5112886;28;20051;-75
2022/10/15 10:28:50;;;;;;;17.50;10.32;;;;;;;19.71;67.33;100368.25;5095721;28;20055;-74
2022/10/15 10:31:32;;;;;;;18.88;10.90;;;;;;;19.87;67.09;100374.94;5093221;28;20052;-74
2022/10/15 10:34:02;;;;;;;17.52;9.00;;;;;;;19.97;67.17;100374.53;5092617;28;20044;-75
2022/10/15 10:36:33;;;;;;;19.13;9.65;;;;;;;20.02;67.17;100388.47;5093936;28;20056;-74
2022/10/15 10:39:09;;;;;;;18.67;9.18;;;;;;;20.16;67.01;100373.97;5093794;27;20059;-74
2022/10/15 10:42:00;;;;;;;14.65;8.25;;;;;;;20.25;66.96;100373.91;5093930;28;20052;-75
2022/10/15 10:44:31;;;;;;;15.98;9.57;;;;;;;20.47;66.64;100373.47;5112640;28;20486;-75
2022/10/15 10:47:09;;;;;;;16.73;8.00;;;;;;;20.61;66.46;100369.50;5111954;28;20521;-74
2022/10/15 10:49:37;;;;;;;15.88;8.00;;;;;;;20.66;66.00;100372.94;5112349;28;20100;-74
2022/10/15 10:52:05;;;;;;;12.60;7.40;;;;;;;20.80;65.96;100369.75;5113765;28;20052;-75
2022/10/15 10:54:33;;;;;;;16.60;9.10;;;;;;;20.84;65.70;100376.38;5114142;28;20047;-75
2022/10/15 10:57:00;;;;;;;18.88;8.25;;;;;;;21.02;65.46;100377.78;5110919;28;20383;-74
2022/10/15 10:59:35;;;;;;;17.70;9.23;;;;;;;21.22;65.21;100370.31;5109321;28;20058;-74
2022/10/15 11:02:05;;;;;;;13.00;7.15;;;;;;;21.33;65.06;100356.44;5098967;28;20062;-74
2022/10/15 11:04:35;;;;;;;21.52;8.15;;;;;;;21.43;64.64;100355.97;5094717;28;20048;-75
2022/10/15 11:07:12;;;;;;;15.65;8.40;;;;;;;21.52;64.81;100359.53;5110123;28;20054;-74
2022/10/15 11:09:48;;;;;;;14.13;7.32;;;;;;;21.58;64.76;100365.78;5111643;28;20071;-74
2022/10/15 11:12:24;;;;;;;15.18;7.90;;;;;;;21.72;64.60;100371.06;5107625;28;20070;-74
2022/10/15 11:14:51;;;;;;;;;;;;;;;21.50;65.21;100370.44;5103860;28;20040;-75
2022/10/15 11:17:59;;;;;;;19.38;7.85;;;;;;;21.71;64.76;100360.91;5104723;28;19928;-74
2022/10/15 11:20:29;;;;;;;16.60;6.10;;;;;;;21.75;64.23;100364.66;5045243;28;20058;-75
2022/10/15 11:23:37;;;;;;;18.40;8.48;;;;;;;21.67;64.17;100366.44;5098377;28;20101;-74
2022/10/15 11:26:22;;;;;;;16.08;7.95;;;;;;;21.57;64.05;100355.59;5104401;28;20439;-74
2022/10/15 11:29:19;;;;;;;16.83;8.85;;;;;;;21.41;64.10;100374.59;5103030;28;20051;-74
2022/10/15 11:31:59;;;;;;;12.65;6.35;;;;;;;21.41;64.27;100372.56;5099813;28;20525;-74
2022/10/15 11:35:02;;;;;;;9.90;5.88;;;;;;;21.23;64.17;100356.94;5107657;28;20044;-74
2022/10/15 11:37:47;;;;;;;12.05;6.00;;;;;;;21.24;63.68;100370.81;5110528;28;20039;-74
2022/10/15 11:40:43;;;;;;;11.93;5.60;;;;;;;21.14;64.05;100368.44;5111004;28;20486;-73